Time;durP1;ratioP1;P1;durP2;ratioP2;P2;SDS_P1;SDS_P2;PMS_P1;PMS_P2;Temp;Humidity;BMP_temperature;BMP_pressure;BME280_temperature;BME280_humidity;BME280_pressure;Samples;Min_cycle;Max_cycle;Signal;HPM_P1;HPM_P2
2022/01/12 00:02:32;;;;;;;13.55;7.30;;;;;;;-5.52;74.61;100722.63;1663234;85;21344;-82
2022/01/12 00:05:37;;;;;;;11.00;7.10;;;;;;;-5.59;73.88;100724.69;1663276;85;21342;-78
2022/01/12 00:08:42;;;;;;;11.20;7.47;;;;;;;-5.65;74.15;100732.92;1663187;86;21344;-77
2022/01/12 00:11:49;;;;;;;16.02;7.45;;;;;;;-5.70;74.15;100728.25;1662242;85;21696;-77
2022/01/12 00:14:54;;;;;;;11.78;6.72;;;;;;;-5.76;74.18;100736.50;1652080;86;21198;-82
2022/01/12 00:17:59;;;;;;;13.68;7.72;;;;;;;-5.82;74.89;100723.44;1680514;85;21359;-77
2022/01/12 00:21:04;;;;;;;12.70;7.30;;;;;;;-5.85;74.45;100731.08;1651096;87;21351;-82
2022/01/12 00:24:09;;;;;;;14.20;8.28;;;;;;;-5.94;74.20;100719.02;1680486;85;21896;-78
2022/01/12 00:34:04;;;;;;;13.93;7.42;;;;;;;-5.96;75.69;100722.23;1680744;85;21331;-77
2022/01/12 00:37:09;;;;;;;19.75;7.90;;;;;;;-5.96;76.33;100720.03;1680813;85;21366;-77
2022/01/12 00:40:16;;;;;;;17.32;7.25;;;;;;;-5.94;76.56;100728.34;1680549;85;21814;-78
2022/01/12 00:43:16;;;;;;;17.32;8.20;;;;;;;-5.88;76.61;100735.66;1680580;85;21193;-77
2022/01/12 00:46:21;;;;;;;17.92;9.73;;;;;;;-5.90;76.73;100729.06;1680474;85;21269;-77
2022/01/12 00:49:26;;;;;;;17.32;8.08;;;;;;;-5.96;77.31;100721.36;1681898;84;21880;-77
2022/01/12 00:52:32;;;;;;;14.25;8.30;;;;;;;-5.89;77.75;100724.60;1668312;84;21350;-82
2022/01/12 00:55:40;;;;;;;12.58;6.55;;;;;;;-5.85;77.14;100728.87;1668440;84;21330;-82
2022/01/12 00:58:48;;;;;;;18.90;8.60;;;;;;;-5.86;76.58;100721.83;1678295;85;21158;-77
2022/01/12 01:01:53;;;;;;;18.85;8.95;;;;;;;-5.87;76.82;100720.96;1678252;84;21354;-77
2022/01/12 01:05:00;;;;;;;15.60;8.60;;;;;;;-5.86;76.67;100720.02;1678310;85;21193;-81
2022/01/12 01:08:05;;;;;;;13.93;8.10;;;;;;;-5.91;76.75;100729.53;1678280;85;21185;-81
2022/01/12 01:11:10;;;;;;;19.98;8.43;;;;;;;-5.94;76.98;100744.33;1678033;84;21336;-82
2022/01/12 01:14:26;;;;;;;14.80;7.87;;;;;;;-6.00;76.70;100732.59;1677989;85;21312;-77
2022/01/12 01:27:34;;;;;;;12.33;6.80;;;;;;;-6.20;77.15;100734.72;1678263;84;21350;-81
2022/01/12 01:30:40;;;;;;;10.80;7.08;;;;;;;-6.22;76.51;100739.69;1651471;86;21971;-82
2022/01/12 01:33:45;;;;;;;17.67;7.53;;;;;;;-6.25;75.85;100744.69;1629659;87;21295;-79
2022/01/12 01:36:56;;;;;;;13.32;7.97;;;;;;;-6.28;76.05;100746.13;1650164;85;21228;-77
2022/01/12 01:40:01;;;;;;;16.20;7.62;;;;;;;-6.27;76.10;100743.00;1651241;87;21343;-77
2022/01/12 01:43:37;;;;;;;14.95;7.85;;;;;;;-6.28;76.42;100743.93;1651283;87;21825;-77
2022/01/12 01:53:21;;;;;;;17.15;8.08;;;;;;;-6.26;76.72;100751.38;1680741;85;21873;-79
2022/01/12 01:56:26;;;;;;;17.62;7.87;;;;;;;-6.29;76.03;100764.84;1680795;84;21304;-82
2022/01/12 01:59:30;;;;;;;13.60;6.65;;;;;;;-6.33;75.92;100768.06;1680606;85;21972;-79
2022/01/12 02:02:37;;;;;;;12.85;7.17;;;;;;;-6.35;75.07;100771.27;1680953;85;21228;-82
2022/01/12 02:05:44;;;;;;;12.10;7.55;;;;;;;-6.41;74.86;100774.14;1655287;85;21350;-82
2022/01/12 02:08:50;;;;;;;16.52;7.92;;;;;;;-6.47;75.49;100764.59;1666883;86;21193;-82
2022/01/12 02:12:01;;;;;;;15.38;7.70;;;;;;;-6.49;75.67;100762.47;1665497;84;21228;-81
2022/01/12 02:15:07;;;;;;;14.68;6.72;;;;;;;-6.51;74.98;100769.63;1639686;87;21315;-83
2022/01/12 02:18:39;;;;;;;15.55;7.55;;;;;;;-6.53;74.48;100779.94;1638494;86;21200;-77
2022/01/12 02:35:44;;;;;;;14.70;7.37;;;;;;;-6.55;75.26;100775.12;1666854;86;21233;-77
2022/01/12 02:41:41;;;;;;;13.78;7.00;;;;;;;-6.55;74.57;100782.63;1667194;84;21346;-80
2022/01/12 02:51:34;;;;;;;13.08;6.75;;;;;;;-6.76;73.12;100778.11;1673880;85;21738;-77
2022/01/12 02:54:38;;;;;;;10.18;6.40;;;;;;;-6.85;73.53;100793.08;1651734;85;21758;-78
2022/01/12 02:57:44;;;;;;;13.28;7.30;;;;;;;-6.91;73.73;100780.00;1651903;85;21253;-77
2022/01/12 03:04:02;;;;;;;14.35;7.33;;;;;;;-7.04;74.03;100790.19;1651757;85;21288;-81
2022/01/12 03:07:15;;;;;;;13.90;7.65;;;;;;;-7.09;74.07;100787.70;1675519;84;21339;-77
2022/01/12 03:10:17;;;;;;;12.58;7.83;;;;;;;-7.14;74.13;100790.98;1675702;84;21327;-77
2022/01/12 03:13:22;;;;;;;17.60;7.92;;;;;;;-7.18;74.52;100793.80;1652338;86;21311;-77
2022/01/12 03:16:28;;;;;;;17.67;7.87;;;;;;;-7.27;74.96;100786.99;1667084;84;21892;-77
2022/01/12 03:19:35;;;;;;;15.03;8.05;;;;;;;-7.33;75.09;100789.41;1667142;86;21347;-77
2022/01/12 03:22:42;;;;;;;17.30;9.00;;;;;;;-7.34;75.17;100801.39;1667005;86;21311;-82
2022/01/12 03:25:49;;;;;;;13.22;7.33;;;;;;;-7.38;75.00;100805.97;1667204;84;21249;-82
2022/01/12 03:28:57;;;;;;;14.98;8.00;;;;;;;-7.42;75.41;100822.06;1665415;86;21299;-79
2022/01/12 03:32:02;;;;;;;20.82;9.18;;;;;;;-7.49;75.81;100804.11;1664172;84;21240;-79
2022/01/12 03:35:35;;;;;;;23.62;9.78;;;;;;;-7.51;76.32;100803.30;1664157;86;21359;-82
2022/01/12 03:38:46;;;;;;;11.53;6.70;;;;;;;-7.52;76.58;100810.88;1664197;86;21236;-78
2022/01/12 03:42:09;;;;;;;18.85;8.98;;;;;;;-7.46;76.93;100801.36;1664192;84;21331;-82
2022/01/12 03:45:33;;;;;;;18.77;10.15;;;;;;;-7.38;77.24;100807.77;1663980;84;21220;-77
2022/01/12 03:48:56;;;;;;;21.17;9.90;;;;;;;-7.31;77.09;100830.08;1664109;86;21181;-81
2022/01/12 03:52:18;;;;;;;16.15;8.25;;;;;;;-7.29;76.88;100807.42;1658257;84;21856;-82
2022/01/12 03:55:41;;;;;;;17.62;9.35;;;;;;;-7.27;76.92;100812.25;1658592;85;21362;-77
2022/01/12 03:59:03;;;;;;;17.50;9.95;;;;;;;-7.24;76.69;100821.45;1658550;86;21237;-78
2022/01/12 04:02:26;;;;;;;20.27;9.48;;;;;;;-7.21;76.80;100802.73;1658395;85;21399;-78
2022/01/12 04:08:48;;;;;;;16.70;9.45;;;;;;;-7.14;76.86;100808.26;1658710;86;21805;-77
2022/01/12 04:11:54;;;;;;;23.32;10.25;;;;;;;-7.04;77.36;100805.69;1658439;85;21331;-78
2022/01/12 04:14:59;;;;;;;20.15;10.25;;;;;;;-6.91;77.51;100806.60;1658458;86;21345;-81
2022/01/12 04:18:05;;;;;;;26.17;10.68;;;;;;;-6.82;77.22;100811.56;1658427;86;21378;-81
2022/01/12 04:21:12;;;;;;;17.60;10.03;;;;;;;-6.79;76.37;100808.81;1658554;85;21379;-77
2022/01/12 04:24:18;;;;;;;31.17;12.53;;;;;;;-6.76;76.62;100816.69;1658652;86;21300;-81
2022/01/12 04:27:22;;;;;;;21.27;10.98;;;;;;;-6.75;76.70;100821.95;1658587;85;21316;-78
2022/01/12 04:30:27;;;;;;;16.52;10.28;;;;;;;-6.79;75.99;100830.09;1658618;85;21193;-82
2022/01/12 04:33:34;;;;;;;25.57;11.53;;;;;;;-6.85;75.72;100821.01;1658607;86;21315;-77
2022/01/12 04:36:40;;;;;;;19.30;10.80;;;;;;;-6.93;75.71;100826.58;1658492;85;21864;-77
2022/01/12 04:39:45;;;;;;;21.37;12.82;;;;;;;-7.02;75.96;100827.77;1658288;86;21784;-81
2022/01/12 04:42:51;;;;;;;23.87;11.73;;;;;;;-7.07;76.26;100842.14;1680831;85;21236;-82
2022/01/12 04:46:09;;;;;;;24.20;12.60;;;;;;;-7.12;76.40;100825.48;1696987;82;21236;-81
2022/01/12 04:49:26;;;;;;;18.60;11.05;;;;;;;-7.15;76.71;100828.23;1708471;84;21181;-77
2022/01/12 04:52:15;;;;;;;17.30;11.10;;;;;;;-7.19;76.77;100826.16;1622897;86;21335;-77
2022/01/12 04:55:22;;;;;;;23.50;10.35;;;;;;;-7.27;76.55;100814.91;1653035;85;21327;-77
2022/01/12 04:58:28;;;;;;;21.93;10.85;;;;;;;-7.36;76.64;100828.50;1652569;87;21354;-82
2022/01/12 05:01:36;;;;;;;23.50;11.78;;;;;;;-7.40;76.51;100832.17;1653093;86;21347;-82
2022/01/12 05:08:22;;;;;;;24.12;12.40;;;;;;;-7.43;77.12;100846.87;1683384;85;21730;-81
2022/01/12 05:15:00;;;;;;;19.25;9.68;;;;;;;-7.49;77.73;100844.83;1675566;85;20281;-79
2022/01/12 05:17:55;;;;;;;23.05;11.35;;;;;;;-7.51;77.33;100843.16;1676770;85;21193;-77
2022/01/12 05:21:01;;;;;;;25.27;11.78;;;;;;;-7.53;77.38;100844.55;1671334;85;21374;-81
2022/01/12 05:24:10;;;;;;;18.95;9.55;;;;;;;-7.53;77.46;100847.20;1644899;87;21205;-77
2022/01/12 05:27:16;;;;;;;30.50;10.90;;;;;;;-7.52;77.76;100844.95;1657866;85;21351;-82
2022/01/12 05:30:22;;;;;;;25.17;10.88;;;;;;;-7.52;78.00;100847.61;1659301;85;21213;-81
2022/01/12 05:33:28;;;;;;;21.85;10.43;;;;;;;-7.56;77.93;100853.94;1675033;85;21818;-81
2022/01/12 05:36:33;;;;;;;21.35;10.00;;;;;;;-7.58;78.13;100845.59;1662521;85;21258;-81
2022/01/12 05:39:38;;;;;;;23.80;11.22;;;;;;;-7.54;77.86;100850.75;1671016;84;21280;-81
2022/01/12 05:42:49;;;;;;;19.23;10.20;;;;;;;-7.49;77.60;100847.48;1706443;84;21690;-80
2022/01/12 05:45:54;;;;;;;21.35;10.43;;;;;;;-7.44;77.13;100838.04;1675063;84;21316;-77
2022/01/12 05:52:23;;;;;;;19.05;10.30;;;;;;;-7.47;76.48;100850.98;1651828;85;21238;-82
2022/01/12 05:55:30;;;;;;;21.33;10.50;;;;;;;-7.50;76.37;100861.70;1660349;84;21226;-82
2022/01/12 05:58:34;;;;;;;18.45;10.05;;;;;;;-7.51;76.54;100857.77;1661237;85;21200;-77
2022/01/12 06:01:39;;;;;;;20.35;11.88;;;;;;;-7.53;76.74;100869.80;1667061;84;21312;-82
2022/01/12 06:04:45;;;;;;;20.65;10.40;;;;;;;-7.53;76.81;100866.23;1658704;84;21812;-82
2022/01/12 06:07:50;;;;;;;23.83;11.53;;;;;;;-7.55;76.79;100869.41;1661181;85;21327;-82
2022/01/12 06:10:57;;;;;;;19.70;10.82;;;;;;;-7.50;77.11;100860.37;1635267;85;21886;-82
2022/01/12 06:14:07;;;;;;;22.52;11.38;;;;;;;-7.43;77.17;100866.81;1661389;85;21201;-82
2022/01/12 06:17:12;;;;;;;17.95;8.88;;;;;;;-7.35;76.87;100872.76;1659145;84;21247;-80
2022/01/12 06:20:18;;;;;;;19.98;10.50;;;;;;;-7.30;76.46;100873.48;1661147;84;22277;-77
2022/01/12 06:23:34;;;;;;;19.27;9.08;;;;;;;-7.27;76.37;100870.27;1609769;84;21186;-82
2022/01/12 06:26:40;;;;;;;17.77;8.58;;;;;;;-7.21;76.04;100869.19;1658828;84;21448;-77
2022/01/12 06:29:42;;;;;;;14.23;8.23;;;;;;;-7.18;75.94;100875.75;1655516;84;21353;-82
2022/01/12 06:32:47;;;;;;;16.02;9.30;;;;;;;-7.16;76.02;100880.54;1658337;84;21342;-82
2022/01/12 06:35:53;;;;;;;16.50;9.55;;;;;;;-7.12;75.90;100878.19;1656599;84;21193;-82
2022/01/12 06:38:59;;;;;;;16.90;9.25;;;;;;;-7.14;74.69;100894.67;1659258;84;21272;-82
2022/01/12 06:42:06;;;;;;;16.85;9.15;;;;;;;-7.17;74.72;100884.59;1656973;84;21257;-82
2022/01/12 06:45:13;;;;;;;15.20;9.38;;;;;;;-7.18;75.19;100901.00;1657525;85;21607;-82
2022/01/12 06:48:20;;;;;;;16.48;9.48;;;;;;;-7.14;74.98;100899.13;1657476;85;21250;-82
2022/01/12 06:51:26;;;;;;;24.63;10.53;;;;;;;-7.18;74.57;100881.06;1657901;84;22139;-83
2022/01/12 06:54:31;;;;;;;17.30;10.25;;;;;;;-7.12;75.11;100886.17;1660147;84;21967;-83
2022/01/12 06:57:39;;;;;;;18.60;10.82;;;;;;;-7.02;74.53;100887.59;1657342;84;21523;-81
2022/01/12 07:00:48;;;;;;;24.00;9.45;;;;;;;-6.96;73.82;100894.53;1654443;84;21462;-83
2022/01/12 07:04:02;;;;;;;19.32;10.20;;;;;;;-6.95;73.26;100890.48;1654883;84;21196;-80
2022/01/12 07:07:19;;;;;;;18.23;9.83;;;;;;;-6.95;72.63;100876.31;1656488;84;21552;-81
2022/01/12 07:10:25;;;;;;;18.57;10.10;;;;;;;-6.98;72.27;100891.89;1656396;84;21202;-82
2022/01/12 07:13:27;;;;;;;19.85;10.30;;;;;;;-7.04;72.63;100919.17;1656434;84;21649;-80
2022/01/12 07:16:34;;;;;;;20.00;10.95;;;;;;;-7.08;72.18;100900.24;1657145;84;21260;-77
2022/01/12 07:19:40;;;;;;;17.50;10.08;;;;;;;-7.07;72.54;100906.83;1659245;85;21772;-77
2022/01/12 07:22:47;;;;;;;21.30;9.53;;;;;;;-6.96;73.31;100920.66;1658763;84;21847;-76
2022/01/12 07:25:52;;;;;;;19.95;10.93;;;;;;;-6.89;72.06;100901.36;1657777;84;21822;-77
2022/01/12 07:28:58;;;;;;;16.45;9.78;;;;;;;-6.90;72.00;100896.11;1658052;84;21200;-78
2022/01/12 07:32:03;;;;;;;18.73;9.63;;;;;;;-6.82;72.50;100898.02;1658475;84;21562;-77
2022/01/12 07:35:09;;;;;;;20.12;10.98;;;;;;;-6.71;71.73;100894.55;1659137;84;21245;-78
2022/01/12 07:38:16;;;;;;;18.92;10.15;;;;;;;-6.69;71.43;100906.00;1659069;84;21212;-82
2022/01/12 07:41:23;;;;;;;23.75;10.80;;;;;;;-6.74;70.74;100895.98;1654738;84;21224;-85
2022/01/12 07:44:30;;;;;;;22.95;9.98;;;;;;;-6.80;70.67;100897.53;1658263;84;21822;-84
2022/01/12 07:47:37;;;;;;;17.05;8.60;;;;;;;-6.84;70.30;100900.75;1657330;84;21829;-83
2022/01/12 07:50:44;;;;;;;18.25;9.95;;;;;;;-6.84;70.74;100898.55;1657557;84;21221;-83
2022/01/12 07:53:49;;;;;;;16.55;8.95;;;;;;;-6.88;70.75;100899.57;1657303;84;21189;-81
2022/01/12 07:56:54;;;;;;;15.00;8.60;;;;;;;-6.80;71.51;100906.38;1653016;84;21190;-82
2022/01/12 07:59:59;;;;;;;21.12;8.33;;;;;;;-6.74;70.72;100902.63;1671487;84;21809;-83
2022/01/12 08:03:07;;;;;;;21.07;8.08;;;;;;;-6.73;69.53;100913.24;1675363;84;21198;-81
2022/01/12 08:06:14;;;;;;;16.62;9.25;;;;;;;-6.71;68.63;100894.55;1672161;84;21235;-78
2022/01/12 08:09:21;;;;;;;16.73;7.08;;;;;;;-6.73;69.16;100883.97;1674031;84;21198;-82
2022/01/12 08:12:26;;;;;;;18.77;9.05;;;;;;;-6.72;68.22;100900.80;1655520;85;21326;-82
2022/01/12 08:15:33;;;;;;;14.63;8.13;;;;;;;-6.71;68.24;100891.43;1652276;85;21615;-83
2022/01/12 08:18:37;;;;;;;14.03;7.92;;;;;;;-6.67;67.87;100893.53;1648962;85;21189;-85
2022/01/12 08:21:44;;;;;;;15.28;8.30;;;;;;;-6.62;68.17;100883.59;1660897;84;21953;-82
2022/01/12 08:24:49;;;;;;;13.53;7.80;;;;;;;-6.58;67.52;100910.97;1661154;85;21817;-83
2022/01/12 08:27:54;;;;;;;14.95;8.40;;;;;;;-6.54;67.34;100884.63;1663991;84;21374;-79
2022/01/12 08:31:00;;;;;;;13.85;7.50;;;;;;;-6.48;67.94;100884.44;1674968;84;21257;-80
2022/01/12 08:34:07;;;;;;;20.40;8.03;;;;;;;-6.41;67.55;100887.73;1642932;85;21181;-77
2022/01/12 08:37:12;;;;;;;16.70;8.43;;;;;;;-6.39;67.62;100880.12;1642243;85;21226;-81
2022/01/12 08:40:31;;;;;;;12.95;7.92;;;;;;;-6.27;68.30;100892.10;1642410;85;21214;-77
2022/01/12 08:43:43;;;;;;;19.12;8.18;;;;;;;-6.11;66.93;100897.29;1641040;85;21330;-82
2022/01/12 08:46:59;;;;;;;14.80;8.48;;;;;;;-5.99;66.59;100878.64;1673984;84;21250;-82
2022/01/12 08:50:06;;;;;;;15.00;9.58;;;;;;;-5.92;65.80;100890.81;1678612;84;21202;-84
2022/01/12 08:53:12;;;;;;;16.30;8.08;;;;;;;-5.91;65.43;100876.06;1671780;84;22381;-82
2022/01/12 08:56:19;;;;;;;15.93;8.75;;;;;;;-5.82;65.66;100888.64;1646261;84;21218;-76
2022/01/12 08:59:24;;;;;;;15.30;8.70;;;;;;;-5.81;65.96;100885.91;1648067;85;21610;-78
2022/01/12 09:02:29;;;;;;;11.48;7.70;;;;;;;-5.73;66.49;100882.95;1677397;84;21240;-78
2022/01/12 09:05:34;;;;;;;13.60;7.40;;;;;;;-5.64;65.52;100885.73;1646881;85;21363;-78
2022/01/12 09:08:44;;;;;;;13.10;7.90;;;;;;;-5.64;65.26;100879.06;1676749;84;21244;-78
2022/01/12 09:11:49;;;;;;;13.72;8.18;;;;;;;-5.69;65.55;100881.91;1659539;85;21324;-78
2022/01/12 09:14:54;;;;;;;16.23;8.75;;;;;;;-5.70;65.65;100883.68;1660511;84;21180;-78
2022/01/12 09:18:00;;;;;;;18.67;8.55;;;;;;;-5.74;64.83;100884.75;1659244;84;21904;-81
2022/01/12 09:21:06;;;;;;;14.28;8.28;;;;;;;-5.74;64.48;100875.86;1657089;84;21245;-82
2022/01/12 09:24:13;;;;;;;13.93;8.80;;;;;;;-5.67;64.70;100876.05;1673590;84;21188;-84
2022/01/12 09:27:20;;;;;;;15.20;8.73;;;;;;;-5.58;64.58;100866.36;1662102;84;21208;-77
2022/01/12 09:30:27;;;;;;;12.70;7.67;;;;;;;-5.61;64.17;100887.79;1635020;84;21461;-78
2022/01/12 09:33:39;;;;;;;13.55;7.33;;;;;;;-5.60;64.73;100867.33;1658285;84;21551;-78
2022/01/12 09:36:46;;;;;;;10.43;7.40;;;;;;;-5.54;64.80;100875.11;1658639;84;21590;-79
2022/01/12 09:39:53;;;;;;;13.50;6.97;;;;;;;-5.54;64.07;100862.64;1659516;84;21194;-79
2022/01/12 09:42:58;;;;;;;11.18;7.15;;;;;;;-5.62;64.27;100866.06;1676940;84;21439;-83
2022/01/12 09:46:10;;;;;;;13.65;8.43;;;;;;;-5.66;64.06;100859.12;1662943;84;21777;-82
2022/01/12 09:49:18;;;;;;;15.23;8.15;;;;;;;-5.70;64.54;100856.16;1666036;84;21366;-81
2022/01/12 09:52:29;;;;;;;13.55;7.08;;;;;;;-5.66;64.61;100865.78;1664431;84;21320;-81
2022/01/12 09:55:38;;;;;;;19.00;10.53;;;;;;;-5.69;64.08;100857.92;1644538;84;21247;-78
2022/01/12 09:58:56;;;;;;;14.07;8.10;;;;;;;-5.74;64.38;100858.11;1673373;84;21197;-83
2022/01/12 10:02:07;;;;;;;15.88;7.87;;;;;;;-5.76;64.98;100856.41;1674679;84;21319;-84
2022/01/12 10:05:16;;;;;;;14.45;7.83;;;;;;;-5.78;66.38;100856.95;1644267;85;22232;-82
2022/01/12 10:08:25;;;;;;;11.50;6.95;;;;;;;-5.76;67.88;100851.95;1672993;84;21212;-79
2022/01/12 10:11:31;;;;;;;11.80;7.62;;;;;;;-5.81;68.38;100873.05;1671208;84;21224;-78
2022/01/12 10:15:00;;;;;;;11.25;6.42;;;;;;;-5.97;67.28;100848.36;1658217;84;21180;-78
2022/01/12 10:18:22;;;;;;;16.07;8.70;;;;;;;-6.09;67.28;100851.48;1644416;85;21394;-80
2022/01/12 10:21:53;;;;;;;13.40;8.45;;;;;;;-6.18;67.24;100856.68;1672422;84;21323;-82
2022/01/12 10:25:16;;;;;;;13.68;7.92;;;;;;;-6.22;66.98;100848.86;1658572;84;21330;-81
2022/01/12 10:28:34;;;;;;;20.23;11.20;;;;;;;-6.25;66.59;100852.99;1671323;84;21193;-80
2022/01/12 10:32:01;;;;;;;14.28;8.40;;;;;;;-6.21;66.96;100837.28;1668081;84;21560;-85
2022/01/12 10:35:06;;;;;;;20.30;10.82;;;;;;;-6.12;66.02;100846.25;1652910;85;22265;-79
2022/01/12 10:38:19;;;;;;;12.85;7.00;;;;;;;-6.09;65.17;100845.29;1654464;85;21835;-81
2022/01/12 10:41:28;;;;;;;14.15;9.10;;;;;;;-6.08;65.21;100834.56;1676947;84;21404;-82
2022/01/12 10:44:46;;;;;;;13.78;8.00;;;;;;;-6.06;65.98;100842.52;1659661;84;21208;-81
2022/01/12 10:47:54;;;;;;;13.60;7.53;;;;;;;-6.11;67.06;100836.03;1657962;84;21618;-81
2022/01/12 10:51:11;;;;;;;13.53;7.67;;;;;;;-6.19;67.98;100840.30;1661334;84;21396;-82
2022/01/12 10:54:43;;;;;;;;;;;;;;;;;;;;;
2022/01/12 10:57:58;;;;;;;13.65;7.58;;;;;;;-6.27;67.67;100850.36;1676120;84;21198;-79
2022/01/12 11:04:55;;;;;;;15.15;8.05;;;;;;;-6.31;68.78;100854.53;1680759;83;21257;-79
2022/01/12 11:08:00;;;;;;;16.25;8.68;;;;;;;-6.35;69.02;100848.91;1659252;84;21309;-77
2022/01/12 11:11:06;;;;;;;11.93;7.53;;;;;;;-6.42;68.91;100849.61;1661761;84;21543;-78
2022/01/12 11:14:12;;;;;;;16.97;8.95;;;;;;;-6.54;69.38;100852.70;1661678;84;21412;-77
2022/01/12 11:17:18;;;;;;;11.33;7.55;;;;;;;-6.62;69.24;100854.32;1655821;84;21205;-77
2022/01/12 11:20:36;;;;;;;13.80;7.50;;;;;;;-6.70;69.91;100851.05;1657337;85;21598;-79
2022/01/12 11:23:46;;;;;;;15.48;7.78;;;;;;;-6.75;69.56;100854.34;1656465;84;21624;-78
2022/01/12 11:27:03;;;;;;;12.30;7.67;;;;;;;-6.77;69.13;100849.55;1659512;84;21764;-80
2022/01/12 11:30:07;;;;;;;17.65;10.20;;;;;;;-6.82;68.27;100852.37;1651281;86;21844;-78
2022/01/12 11:33:20;;;;;;;14.47;9.90;;;;;;;-6.82;68.06;100851.47;1672026;83;21587;-77
2022/01/12 11:36:32;;;;;;;15.93;10.03;;;;;;;-6.81;68.89;100849.24;1674953;83;21685;-79
2022/01/12 11:39:39;;;;;;;16.80;8.53;;;;;;;-6.82;69.48;100848.38;1675099;83;21704;-81
2022/01/12 11:42:49;;;;;;;14.23;8.55;;;;;;;-6.80;69.80;100850.97;1636438;84;21843;-81
2022/01/12 11:45:52;;;;;;;15.90;9.43;;;;;;;-6.84;70.07;100853.33;1654562;85;21341;-82
2022/01/12 11:49:01;;;;;;;15.68;8.58;;;;;;;-6.86;69.74;100852.52;1660631;84;21799;-82
2022/01/12 11:52:08;;;;;;;16.40;8.90;;;;;;;-6.85;69.55;100843.16;1652349;85;21241;-78
2022/01/12 11:55:23;;;;;;;14.28;7.97;;;;;;;-6.83;68.21;100843.95;1643111;85;21205;-77
2022/01/12 11:58:31;;;;;;;13.00;7.62;;;;;;;-6.80;67.39;100850.97;1657181;84;21610;-78
2022/01/12 12:01:54;;;;;;;16.10;8.53;;;;;;;-6.81;67.69;100845.25;1658653;84;21848;-78
2022/01/12 12:05:04;;;;;;;20.27;9.00;;;;;;;-6.78;67.42;100842.46;1658326;84;22125;-79
2022/01/12 12:08:11;;;;;;;22.35;10.13;;;;;;;-6.76;68.06;100841.50;1674806;84;22111;-78
2022/01/12 12:11:20;;;;;;;17.73;9.43;;;;;;;-6.72;67.23;100856.44;1673957;84;21233;-78
2022/01/12 12:14:25;;;;;;;19.65;8.63;;;;;;;-6.67;67.55;100858.07;1674868;84;21779;-79
2022/01/12 12:17:33;;;;;;;15.43;7.78;;;;;;;-6.65;66.49;100865.53;1675759;84;22152;-83
2022/01/12 12:20:38;;;;;;;10.03;7.28;;;;;;;-6.64;66.67;100865.92;1681726;84;21250;-82
2022/01/12 12:23:47;;;;;;;;;;;;;;;-6.66;66.21;100859.34;1663544;84;21204;-78
2022/01/12 12:26:56;;;;;;;18.25;9.48;;;;;;;-6.74;66.30;100860.06;1673710;84;20588;-80
2022/01/12 12:30:00;;;;;;;19.17;9.98;;;;;;;-6.71;66.69;100865.28;1657906;84;21894;-79
2022/01/12 12:33:16;;;;;;;14.45;8.83;;;;;;;-6.68;67.16;100858.50;1676087;84;21200;-78
2022/01/12 12:36:21;;;;;;;16.00;8.13;;;;;;;-6.65;67.40;100864.20;1674844;84;21214;-79
2022/01/12 12:39:26;;;;;;;12.73;7.60;;;;;;;-6.66;67.06;100862.47;1658124;84;21197;-78
2022/01/12 12:42:38;;;;;;;16.65;9.03;;;;;;;-6.76;65.87;100863.25;1638612;85;22409;-79
2022/01/12 12:46:09;;;;;;;13.80;9.18;;;;;;;-6.92;65.83;100864.22;1813153;76;22798;-78
2022/01/12 12:49:16;;;;;;;12.03;8.18;;;;;;;-7.00;65.57;100882.25;1761910;80;21583;-77
2022/01/12 12:52:39;;;;;;;14.65;8.18;;;;;;;-7.08;65.75;100863.87;1757021;79;21281;-78
2022/01/12 12:55:50;;;;;;;13.43;7.65;;;;;;;-7.21;65.66;100878.49;1754649;79;21184;-76
2022/01/12 12:59:05;;;;;;;15.65;7.50;;;;;;;-7.30;65.88;100886.77;1756638;79;21803;-82
2022/01/12 13:02:19;;;;;;;11.08;7.22;;;;;;;-7.36;65.92;100881.19;1719037;82;21468;-77
2022/01/12 13:05:28;;;;;;;15.60;8.88;;;;;;;-7.42;66.77;100873.89;1717816;83;21235;-77
2022/01/12 13:08:35;;;;;;;16.05;9.25;;;;;;;-7.50;67.54;100879.44;1717673;83;21188;-76
2022/01/12 13:11:46;;;;;;;16.45;9.63;;;;;;;-7.54;67.44;100886.62;1716794;82;21475;-81
2022/01/12 13:14:54;;;;;;;17.02;8.68;;;;;;;-7.57;67.58;100889.41;1714140;83;21177;-81
2022/01/12 13:18:17;;;;;;;19.60;10.58;;;;;;;-7.59;67.91;100879.27;1714056;82;21207;-81
2022/01/12 13:21:36;;;;;;;14.68;8.65;;;;;;;-7.64;68.27;100879.00;1718733;83;21196;-77
2022/01/12 13:24:46;;;;;;;13.85;8.63;;;;;;;-7.63;69.26;100884.25;1717546;83;21306;-77
2022/01/12 13:27:56;;;;;;;24.23;11.10;;;;;;;-7.63;69.35;100888.23;1719422;82;21758;-76
2022/01/12 13:31:05;;;;;;;17.95;9.10;;;;;;;-7.60;69.80;100889.95;1716218;83;21207;-78
2022/01/12 13:34:16;;;;;;;20.75;10.25;;;;;;;-7.60;70.42;100885.96;1754660;81;21696;-82
2022/01/12 13:37:23;;;;;;;20.62;10.13;;;;;;;-7.59;71.43;100887.23;1735575;81;21173;-76
2022/01/12 13:40:28;;;;;;;22.80;11.05;;;;;;;-7.55;72.03;100892.00;1719253;81;21275;-77
2022/01/12 13:43:33;;;;;;;20.40;10.98;;;;;;;-7.56;72.72;100899.11;1716802;81;21188;-77
2022/01/12 13:47:04;;;;;;;16.30;8.30;;;;;;;-7.56;72.96;100896.45;1704139;82;21342;-82
2022/01/12 13:49:56;;;;;;;13.60;7.53;;;;;;;-7.58;72.70;100902.25;1683375;83;21283;-77
2022/01/12 13:53:01;;;;;;;13.58;7.12;;;;;;;-7.65;72.12;100899.39;1673839;83;21177;-77
2022/01/12 13:56:06;;;;;;;11.45;6.90;;;;;;;-7.70;72.18;100897.80;1696828;83;21352;-82
2022/01/12 13:59:12;;;;;;;13.25;7.20;;;;;;;-7.72;71.83;100902.67;1667274;83;21296;-81
2022/01/12 14:02:23;;;;;;;16.00;8.40;;;;;;;-7.70;71.25;100911.94;1703084;84;21379;-82
2022/01/12 14:05:39;;;;;;;15.28;8.58;;;;;;;-7.72;70.82;100902.67;1675310;85;21311;-77
2022/01/12 14:08:51;;;;;;;18.25;9.63;;;;;;;-7.75;70.94;100905.44;1685308;84;21182;-81
2022/01/12 14:11:52;;;;;;;16.17;9.83;;;;;;;-7.70;71.24;100905.30;1643773;84;21548;-77
2022/01/12 14:15:03;;;;;;;15.28;9.20;;;;;;;-7.69;71.47;100907.03;1685628;84;21311;-77
2022/01/12 14:18:12;;;;;;;18.65;9.33;;;;;;;-7.65;71.82;100915.79;1685118;84;21299;-78
2022/01/12 14:21:22;;;;;;;14.23;8.30;;;;;;;-7.56;71.80;100923.02;1690958;84;21370;-77
2022/01/12 14:24:28;;;;;;;14.95;8.58;;;;;;;-7.54;71.43;100917.19;1684602;84;21356;-82
2022/01/12 14:27:44;;;;;;;19.77;10.63;;;;;;;-7.54;71.53;100916.31;1680862;84;21234;-77
2022/01/12 14:30:49;;;;;;;16.75;10.10;;;;;;;-7.55;72.23;100917.24;1681160;84;21536;-82
2022/01/12 14:33:57;;;;;;;18.10;10.63;;;;;;;-7.52;73.99;100919.35;1679743;84;21336;-78
2022/01/12 14:37:03;;;;;;;29.90;12.95;;;;;;;-7.50;75.20;100918.83;1703494;83;21639;-83
2022/01/12 14:40:09;;;;;;;22.55;12.30;;;;;;;-7.50;76.54;100921.49;1703757;82;21277;-78
2022/01/12 14:43:16;;;;;;;22.15;12.63;;;;;;;-7.56;77.63;100916.38;1703603;82;21702;-81
2022/01/12 14:46:22;;;;;;;21.60;10.75;;;;;;;-7.59;78.15;100928.41;1713103;82;21209;-77
2022/01/12 14:49:27;;;;;;;15.85;9.38;;;;;;;-7.64;78.42;100922.38;1693524;84;21170;-82
2022/01/12 14:52:33;;;;;;;18.23;9.55;;;;;;;-7.78;76.26;100932.55;1746761;81;21347;-77
2022/01/12 14:55:38;;;;;;;16.25;9.13;;;;;;;-7.92;76.47;100937.39;1741764;81;21849;-81
2022/01/12 14:58:45;;;;;;;16.75;9.18;;;;;;;-8.01;76.62;100933.20;1757351;81;21341;-81
2022/01/12 15:01:52;;;;;;;15.48;8.98;;;;;;;-8.05;76.62;100935.07;1756920;81;21667;-81
2022/01/12 15:04:57;;;;;;;21.50;12.68;;;;;;;-8.06;77.25;100937.78;1757182;81;21322;-77
2022/01/12 15:08:03;;;;;;;24.70;12.13;;;;;;;-8.11;78.19;100937.05;1757725;81;21306;-82
2022/01/12 15:11:10;;;;;;;22.85;12.37;;;;;;;-8.24;78.56;100942.68;1757679;81;21187;-80
2022/01/12 15:14:32;;;;;;;30.05;14.38;;;;;;;-8.32;78.89;100937.20;1758062;81;21223;-82
2022/01/12 15:17:35;;;;;;;26.90;12.85;;;;;;;-8.45;79.34;100949.08;1756777;81;21300;-78
2022/01/12 15:20:40;;;;;;;24.72;14.10;;;;;;;-8.57;79.37;100953.78;1757163;81;21314;-82
2022/01/12 15:23:46;;;;;;;21.40;11.40;;;;;;;-8.68;79.35;100954.52;1757818;81;21290;-78
2022/01/12 15:26:51;;;;;;;18.07;9.93;;;;;;;-8.79;79.69;100951.29;1756938;81;21187;-82
2022/01/12 15:29:57;;;;;;;29.07;12.63;;;;;;;-8.90;79.25;100954.19;1756534;81;21697;-82
2022/01/12 15:33:02;;;;;;;32.40;14.33;;;;;;;-9.03;78.84;100951.44;1758150;81;21354;-78
2022/01/12 15:36:08;;;;;;;31.35;13.40;;;;;;;-9.13;79.00;100957.39;1758183;81;21381;-81